Time;durP1;ratioP1;P1;durP2;ratioP2;P2;SDS_P1;SDS_P2;PMS_P1;PMS_P2;Temp;Humidity;BMP_temperature;BMP_pressure;BME280_temperature;BME280_humidity;BME280_pressure;Samples;Min_cycle;Max_cycle;Signal;HPM_P1;HPM_P2
2023/03/27 00:02:00;;;;;;;0.83;0.57;;;;;;;4.77;100.00;95064.28;4946099;28;20054;-93
2023/03/27 00:04:31;;;;;;;1.20;0.67;;;;;;;4.83;100.00;95055.00;4952705;28;20034;-93
2023/03/27 00:06:58;;;;;;;2.93;0.60;;;;;;;4.76;100.00;95056.59;4953651;28;20034;-93
2023/03/27 00:09:24;;;;;;;1.27;0.77;;;;;;;4.82;100.00;95063.81;4980031;28;20058;-92
2023/03/27 00:11:51;;;;;;;2.33;0.73;;;;;;;4.83;100.00;95060.22;4949266;28;20074;-93
2023/03/27 00:14:16;;;;;;;1.87;1.10;;;;;;;4.75;100.00;95058.38;4965933;28;20480;-93
2023/03/27 00:16:42;;;;;;;2.67;1.00;;;;;;;4.80;100.00;95066.56;4960930;28;20043;-93
2023/03/27 00:19:08;;;;;;;2.47;0.87;;;;;;;4.82;100.00;95067.22;4955230;28;20037;-92
2023/03/27 00:21:34;;;;;;;4.90;0.97;;;;;;;4.86;100.00;95068.56;4957245;29;20047;-92
2023/03/27 00:23:59;;;;;;;1.30;0.80;;;;;;;4.89;100.00;95070.03;4966827;28;20058;-93
2023/03/27 00:26:25;;;;;;;1.40;0.90;;;;;;;4.76;100.00;95061.81;4955580;28;20034;-92
2023/03/27 00:28:51;;;;;;;2.10;0.80;;;;;;;4.89;100.00;95068.25;4972126;28;20023;-92
2023/03/27 00:31:18;;;;;;;1.63;0.77;;;;;;;4.93;100.00;95058.38;4976097;28;20039;-93
2023/03/27 00:33:44;;;;;;;2.90;1.00;;;;;;;4.85;100.00;95066.09;4961617;28;20497;-93
2023/03/27 00:36:10;;;;;;;1.60;0.90;;;;;;;4.82;100.00;95072.44;4972866;28;20066;-92
2023/03/27 00:38:38;;;;;;;2.27;1.00;;;;;;;4.84;100.00;95077.50;4965610;28;20217;-92
2023/03/27 00:41:03;;;;;;;1.10;0.67;;;;;;;4.86;100.00;95083.34;4953637;28;20050;-92
2023/03/27 00:43:34;;;;;;;1.50;0.80;;;;;;;5.00;100.00;95076.78;4962366;28;20042;-92
2023/03/27 00:46:16;;;;;;;3.53;1.00;;;;;;;4.96;100.00;95084.94;4973639;28;20039;-93
2023/03/27 00:48:46;;;;;;;2.57;0.93;;;;;;;5.03;100.00;95074.72;4958615;28;20055;-92
2023/03/27 00:51:13;;;;;;;1.43;1.00;;;;;;;5.00;100.00;95075.00;4948885;29;20031;-93
2023/03/27 00:53:40;;;;;;;2.30;1.10;;;;;;;5.03;100.00;95073.88;4969382;28;20037;-93
2023/03/27 00:56:06;;;;;;;2.50;1.00;;;;;;;4.94;100.00;95080.81;4962143;28;20670;-93
2023/03/27 00:58:47;;;;;;;1.17;1.00;;;;;;;5.00;100.00;95084.59;4946943;28;20031;-93
2023/03/27 01:01:15;;;;;;;1.30;0.80;;;;;;;4.95;100.00;95082.44;4967228;28;20041;-92
2023/03/27 01:03:45;;;;;;;1.37;0.80;;;;;;;4.98;100.00;95071.72;4991772;28;20023;-92
2023/03/27 01:06:15;;;;;;;2.40;1.03;;;;;;;4.88;100.00;95077.03;4980419;28;20034;-92
2023/03/27 01:08:43;;;;;;;1.20;0.80;;;;;;;4.94;100.00;95080.81;4961344;28;20571;-92
2023/03/27 01:11:25;;;;;;;1.40;0.77;;;;;;;4.86;100.00;95080.75;4975775;28;20734;-92
2023/03/27 01:14:14;;;;;;;1.33;0.77;;;;;;;4.89;100.00;95083.88;4968630;28;20034;-92
2023/03/27 01:16:49;;;;;;;1.53;0.87;;;;;;;4.83;100.00;95081.91;4970200;28;20038;-92
2023/03/27 01:19:24;;;;;;;2.20;1.30;;;;;;;4.89;100.00;95089.09;4962673;28;20024;-92
2023/03/27 01:22:15;;;;;;;2.23;1.27;;;;;;;4.86;100.00;95093.78;4969591;28;20062;-93
2023/03/27 01:25:00;;;;;;;2.47;1.10;;;;;;;4.83;100.00;95100.13;4970734;28;20548;-93
2023/03/27 01:27:48;;;;;;;1.30;1.00;;;;;;;4.82;100.00;95095.88;4965855;28;20045;-92
2023/03/27 01:30:25;;;;;;;1.23;0.93;;;;;;;4.82;100.00;95098.47;4946542;28;20046;-92
2023/03/27 01:32:51;;;;;;;1.43;1.00;;;;;;;4.73;100.00;95108.03;4969373;28;20132;-93
2023/03/27 01:35:35;;;;;;;1.07;0.90;;;;;;;4.75;100.00;95109.66;4960296;28;20045;-93
2023/03/27 01:38:36;;;;;;;1.73;0.87;;;;;;;4.75;100.00;95112.25;4969341;28;20038;-93
2023/03/27 01:41:12;;;;;;;1.13;0.80;;;;;;;4.67;100.00;95126.88;4956750;28;20042;-93
2023/03/27 01:44:03;;;;;;;2.07;1.00;;;;;;;4.59;100.00;95131.97;4958510;28;20125;-92
2023/03/27 01:46:40;;;;;;;1.53;1.10;;;;;;;4.71;100.00;95132.59;4964878;28;20098;-92
2023/03/27 01:49:31;;;;;;;1.97;1.00;;;;;;;4.67;100.00;95144.28;4946373;29;20043;-92
2023/03/27 01:52:02;;;;;;;1.07;0.80;;;;;;;4.55;100.00;95148.06;4954529;28;20043;-92
2023/03/27 01:54:33;;;;;;;1.83;0.50;;;;;;;4.62;100.00;95165.53;4942012;28;20090;-92
2023/03/27 01:57:15;;;;;;;0.97;0.70;;;;;;;4.43;100.00;95163.91;4958700;28;20031;-92
2023/03/27 01:59:44;;;;;;;0.70;0.53;;;;;;;4.51;100.00;95168.38;4983477;28;20027;-93
2023/03/27 02:02:16;;;;;;;0.77;0.57;;;;;;;4.54;100.00;95170.69;4964742;28;20042;-93
2023/03/27 02:04:52;;;;;;;0.33;0.30;;;;;;;4.40;100.00;95179.81;4961942;28;20038;-93
2023/03/27 02:07:29;;;;;;;1.13;0.53;;;;;;;4.38;100.00;95189.56;4958433;28;20042;-93
2023/03/27 02:10:00;;;;;;;1.40;0.67;;;;;;;4.32;100.00;95184.94;4987413;28;20037;-92
2023/03/27 02:12:34;;;;;;;0.32;0.25;;;;;;;4.21;100.00;95198.16;4979960;28;20015;-92
2023/03/27 02:15:08;;;;;;;0.85;0.30;;;;;;;4.14;100.00;95197.09;4973595;28;20134;-92
2023/03/27 02:17:46;;;;;;;0.97;0.50;;;;;;;4.17;100.00;95208.03;4953620;28;20077;-93
2023/03/27 02:20:15;;;;;;;0.40;0.40;;;;;;;4.14;100.00;95212.72;4951437;28;20030;-92
2023/03/27 02:22:47;;;;;;;1.07;0.50;;;;;;;3.97;100.00;95220.31;4971743;28;20499;-92
2023/03/27 02:25:38;;;;;;;1.23;0.50;;;;;;;3.98;100.00;95224.53;4964459;28;20114;-92
2023/03/27 02:28:28;;;;;;;0.43;0.20;;;;;;;3.92;100.00;95235.53;4947150;29;20067;-92
2023/03/27 02:31:13;;;;;;;1.50;0.47;;;;;;;3.84;100.00;95240.63;4964520;28;20378;-93
2023/03/27 02:34:22;;;;;;;1.07;0.60;;;;;;;3.67;100.00;95246.56;4960174;28;20057;-92
2023/03/27 02:37:06;;;;;;;0.97;0.60;;;;;;;3.83;100.00;95252.00;4948120;28;20309;-92
2023/03/27 02:40:18;;;;;;;1.50;0.73;;;;;;;3.69;100.00;95263.69;4956356;28;20071;-92
2023/03/27 02:42:51;;;;;;;;;;;;;;;3.83;100.00;95280.59;4960872;28;20031;-92
2023/03/27 02:45:51;;;;;;;1.80;1.10;;;;;;;3.71;100.00;95285.13;4966804;28;19913;-92
2023/03/27 02:48:40;;;;;;;1.87;1.20;;;;;;;3.62;100.00;95282.56;4961263;28;20456;-93
2023/03/27 02:51:12;;;;;;;2.57;1.23;;;;;;;3.67;100.00;95303.78;4960524;28;20031;-92
2023/03/27 02:53:46;;;;;;;3.63;1.07;;;;;;;3.61;100.00;95305.13;4957175;28;20026;-92
2023/03/27 02:56:27;;;;;;;3.40;1.20;;;;;;;3.35;100.00;95320.47;4955550;28;20053;-92
2023/03/27 02:59:26;;;;;;;1.97;1.30;;;;;;;3.33;100.00;95322.41;4956547;28;20078;-92
2023/03/27 03:01:53;;;;;;;3.47;1.50;;;;;;;3.31;100.00;95324.31;4929391;28;20047;-92
2023/03/27 03:04:30;;;;;;;2.00;1.20;;;;;;;3.31;100.00;95334.69;4969476;28;20408;-92
2023/03/27 03:07:05;;;;;;;2.60;1.30;;;;;;;3.40;100.00;95340.88;4963237;28;20508;-93
2023/03/27 03:09:31;;;;;;;2.47;1.23;;;;;;;3.38;100.00;95343.59;4956201;28;20043;-92
2023/03/27 03:11:58;;;;;;;3.20;1.47;;;;;;;3.33;100.00;95363.16;4954393;28;20041;-93
2023/03/27 03:14:35;;;;;;;2.60;1.20;;;;;;;3.03;100.00;95360.53;4971410;28;20030;-91
2023/03/27 03:17:01;;;;;;;1.67;1.00;;;;;;;2.91;100.00;95374.56;4957760;28;20122;-92
2023/03/27 03:19:32;;;;;;;2.27;1.10;;;;;;;2.77;100.00;95377.56;4957152;28;20027;-92
2023/03/27 03:21:59;;;;;;;1.43;1.10;;;;;;;2.79;100.00;95396.44;4960567;28;20686;-92
2023/03/27 03:24:26;;;;;;;1.83;1.00;;;;;;;2.81;100.00;95417.88;4969482;28;20042;-92
2023/03/27 03:26:52;;;;;;;2.47;1.27;;;;;;;2.78;100.00;95415.53;4955456;28;20042;-92
2023/03/27 03:29:35;;;;;;;2.20;1.10;;;;;;;2.64;100.00;95411.53;4957130;28;20375;-92
2023/03/27 03:32:11;;;;;;;2.13;1.03;;;;;;;2.85;100.00;95421.88;4965733;28;20027;-92
2023/03/27 03:34:40;;;;;;;2.17;1.13;;;;;;;2.72;100.00;95424.69;4946015;29;20272;-92
2023/03/27 03:37:09;;;;;;;3.07;1.07;;;;;;;2.74;100.00;95440.94;4946236;29;20031;-93
2023/03/27 03:39:35;;;;;;;2.47;1.17;;;;;;;2.81;100.00;95442.06;4961174;28;20041;-92
2023/03/27 03:42:03;;;;;;;2.20;1.17;;;;;;;2.78;100.00;95450.13;4956039;28;20489;-92
2023/03/27 03:44:29;;;;;;;2.90;1.23;;;;;;;2.66;100.00;95451.16;4951750;28;20037;-92
2023/03/27 03:46:56;;;;;;;2.37;1.50;;;;;;;2.72;100.00;95462.81;4966297;28;20555;-92
2023/03/27 03:49:24;;;;;;;2.87;1.10;;;;;;;2.74;100.00;95477.28;4956150;28;20041;-92
2023/03/27 03:51:50;;;;;;;3.53;1.60;;;;;;;2.67;100.00;95481.38;4955559;28;20035;-92
2023/03/27 03:54:18;;;;;;;1.40;1.10;;;;;;;2.58;100.00;95493.34;4981593;28;20085;-92
2023/03/27 03:56:43;;;;;;;3.87;1.57;;;;;;;2.54;100.00;95502.31;4986423;28;20453;-92
2023/03/27 03:59:10;;;;;;;2.30;1.20;;;;;;;2.42;100.00;95507.75;4969245;28;20039;-92
2023/03/27 04:01:53;;;;;;;4.17;1.67;;;;;;;2.30;100.00;95519.94;4945346;28;20035;-92
2023/03/27 04:04:18;;;;;;;2.17;1.30;;;;;;;2.49;100.00;95527.84;4954758;28;20485;-92
2023/03/27 04:07:08;;;;;;;3.90;1.47;;;;;;;2.49;100.00;95538.25;4962608;28;20027;-92
2023/03/27 04:09:38;;;;;;;2.53;1.27;;;;;;;2.40;100.00;95539.00;4963792;28;20478;-92
2023/03/27 04:12:07;;;;;;;2.43;1.43;;;;;;;2.32;100.00;95552.59;4972829;28;20012;-92
2023/03/27 04:14:56;;;;;;;2.17;1.00;;;;;;;2.33;100.00;95556.81;4975070;28;20031;-93
2023/03/27 04:17:47;;;;;;;2.83;1.00;;;;;;;2.22;100.00;95566.44;4960679;28;20487;-92
2023/03/27 04:20:14;;;;;;;2.17;1.00;;;;;;;2.19;100.00;95574.47;4951954;28;20462;-92
2023/03/27 04:22:47;;;;;;;2.40;1.10;;;;;;;1.94;100.00;95584.19;4966210;28;20110;-91
2023/03/27 04:25:16;;;;;;;2.33;0.90;;;;;;;1.82;100.00;95587.78;4962541;28;20031;-91
2023/03/27 04:27:44;;;;;;;1.60;1.10;;;;;;;1.72;100.00;95600.66;4985580;28;20478;-92
2023/03/27 04:30:22;;;;;;;2.63;1.10;;;;;;;1.62;100.00;95603.13;4975099;28;20450;-92
2023/03/27 04:33:06;;;;;;;5.13;1.73;;;;;;;1.65;100.00;95613.25;4973803;28;20037;-91
2023/03/27 04:35:51;;;;;;;4.60;1.03;;;;;;;1.53;100.00;95613.38;4962967;28;20477;-92
2023/03/27 04:38:19;;;;;;;2.23;0.93;;;;;;;1.31;100.00;95620.25;4975071;28;20473;-91
2023/03/27 04:40:48;;;;;;;3.40;1.03;;;;;;;1.41;100.00;95621.19;4959650;28;20525;-92
2023/03/27 04:43:16;;;;;;;2.03;1.20;;;;;;;1.12;100.00;95626.00;4951341;28;20446;-92
2023/03/27 04:45:46;;;;;;;2.73;1.43;;;;;;;1.17;100.00;95638.56;4960101;28;20533;-91
2023/03/27 04:48:13;;;;;;;1.70;1.00;;;;;;;1.12;100.00;95646.72;4963401;28;20477;-92
2023/03/27 04:50:42;;;;;;;3.40;1.33;;;;;;;0.91;100.00;95658.69;4959718;28;20554;-92
2023/03/27 04:53:11;;;;;;;3.90;1.30;;;;;;;0.98;100.00;95672.81;4958846;28;20906;-92
2023/03/27 04:55:51;;;;;;;3.87;1.30;;;;;;;0.95;100.00;95686.00;4964636;28;20469;-92
2023/03/27 04:58:21;;;;;;;3.60;1.58;;;;;;;0.87;100.00;95685.72;4948792;28;20454;-91
2023/03/27 05:00:51;;;;;;;3.57;2.00;;;;;;;0.85;100.00;95691.03;4968643;28;20031;-92
2023/03/27 05:03:35;;;;;;;7.37;1.93;;;;;;;0.87;100.00;95703.84;4967968;28;20450;-91
2023/03/27 05:06:22;;;;;;;5.63;2.40;;;;;;;0.92;100.00;95717.28;4952613;29;20458;-91
2023/03/27 05:08:59;;;;;;;6.20;2.70;;;;;;;0.89;100.00;95720.91;4947650;28;20577;-91
2023/03/27 05:11:29;;;;;;;9.73;2.97;;;;;;;0.93;100.00;95718.91;4960308;28;20469;-91
2023/03/27 05:13:55;;;;;;;44.87;24.70;;;;;;;0.87;100.00;95729.72;4960086;28;20470;-91
2023/03/27 05:16:25;;;;;;;11.60;3.53;;;;;;;0.92;100.00;95730.22;4953762;28;20042;-91
2023/03/27 05:18:55;;;;;;;13.60;5.30;;;;;;;0.83;100.00;95736.06;4959442;28;20495;-91
2023/03/27 05:21:20;;;;;;;10.10;3.53;;;;;;;0.88;100.00;95742.56;4965431;28;20806;-91
2023/03/27 05:23:47;;;;;;;11.43;3.97;;;;;;;1.04;100.00;95750.03;4964029;28;20522;-91
2023/03/27 05:26:13;;;;;;;15.43;4.80;;;;;;;1.02;100.00;95759.69;4950818;28;20035;-91
2023/03/27 05:28:50;;;;;;;9.60;3.83;;;;;;;0.91;100.00;95764.81;4965012;28;21059;-92
2023/03/27 05:31:16;;;;;;;16.80;4.60;;;;;;;1.04;100.00;95770.75;4972144;28;20496;-92
2023/03/27 05:33:53;;;;;;;9.70;4.23;;;;;;;0.93;100.00;95776.69;4967261;28;20517;-92
2023/03/27 05:36:20;;;;;;;16.67;5.10;;;;;;;0.82;100.00;95784.44;4977683;28;20458;-91
2023/03/27 05:38:47;;;;;;;18.17;5.17;;;;;;;0.97;100.00;95790.25;4973165;28;20529;-91
2023/03/27 05:41:35;;;;;;;19.53;5.83;;;;;;;0.88;100.00;95804.69;4964311;28;20802;-91
2023/03/27 05:44:03;;;;;;;11.43;4.33;;;;;;;0.83;100.00;95809.34;4961346;28;20466;-92
2023/03/27 05:46:33;;;;;;;15.60;4.87;;;;;;;0.79;100.00;95801.94;4957418;28;20554;-91
2023/03/27 05:49:12;;;;;;;18.40;4.70;;;;;;;0.91;100.00;95820.00;4953251;28;20477;-91
2023/03/27 05:51:39;;;;;;;15.17;5.97;;;;;;;0.93;100.00;95822.47;4942090;28;21027;-91
2023/03/27 05:54:06;;;;;;;14.10;4.50;;;;;;;0.85;100.00;95835.16;4949436;28;20463;-92
2023/03/27 05:56:37;;;;;;;19.73;5.07;;;;;;;0.87;100.00;95841.88;4950667;28;20776;-92
2023/03/27 05:59:03;;;;;;;20.77;5.57;;;;;;;0.93;100.00;95843.19;4958569;28;20533;-92
2023/03/27 06:01:34;;;;;;;16.07;4.57;;;;;;;0.77;100.00;95856.41;4958045;28;20465;-92
2023/03/27 06:04:03;;;;;;;17.90;6.97;;;;;;;0.76;100.00;95861.69;4953448;28;20812;-90
2023/03/27 06:06:47;;;;;;;13.17;4.23;;;;;;;0.78;100.00;95862.41;4971593;28;20545;-92
2023/03/27 06:09:13;;;;;;;11.60;4.50;;;;;;;0.83;100.00;95873.25;4959272;28;20475;-91
2023/03/27 06:11:43;;;;;;;15.83;4.10;;;;;;;0.81;100.00;95875.13;4954113;28;20097;-90
2023/03/27 06:14:09;;;;;;;20.80;6.03;;;;;;;0.85;100.00;95882.56;4951312;28;20822;-91
2023/03/27 06:16:55;;;;;;;21.10;5.87;;;;;;;0.84;100.00;95887.84;4949292;28;20494;-90
2023/03/27 06:19:45;;;;;;;18.20;5.10;;;;;;;0.83;100.00;95896.56;4949450;28;21242;-90
2023/03/27 06:22:11;;;;;;;14.03;5.23;;;;;;;0.84;100.00;95895.59;4964056;28;20462;-90
2023/03/27 06:24:38;;;;;;;14.93;5.20;;;;;;;0.95;100.00;95906.06;4945363;28;20470;-91
2023/03/27 06:27:04;;;;;;;18.30;5.40;;;;;;;0.87;100.00;95913.50;4949238;29;20490;-90
2023/03/27 06:29:32;;;;;;;18.33;4.67;;;;;;;0.89;100.00;95919.41;4947896;28;20145;-91
2023/03/27 06:32:00;;;;;;;11.57;4.53;;;;;;;1.03;100.00;95919.28;4946069;28;20972;-91
2023/03/27 06:34:30;;;;;;;15.67;4.70;;;;;;;0.84;100.00;95926.66;4952706;28;20045;-90
2023/03/27 06:37:36;;;;;;;;;;;;;;;0.99;100.00;95937.72;4928388;29;21083;-90
2023/03/27 06:40:08;;;;;;;13.30;4.10;;;;;;;0.96;100.00;95938.75;4938379;28;19917;-90
2023/03/27 06:42:37;;;;;;;13.18;4.38;;;;;;;0.99;100.00;95941.13;4948554;28;20470;-91
2023/03/27 06:45:23;;;;;;;15.60;5.07;;;;;;;1.07;100.00;95949.19;4961200;28;20038;-91
2023/03/27 06:48:12;;;;;;;16.63;4.80;;;;;;;0.87;100.00;95953.19;4966990;28;20477;-91
2023/03/27 06:50:41;;;;;;;16.33;4.00;;;;;;;0.82;100.00;95960.44;4960917;28;20542;-91
2023/03/27 06:53:06;;;;;;;15.37;4.60;;;;;;;0.86;100.00;95972.22;4952196;28;20463;-90
2023/03/27 06:55:43;;;;;;;12.70;4.23;;;;;;;0.94;100.00;95969.13;4951739;28;20517;-91
2023/03/27 06:58:12;;;;;;;16.97;4.77;;;;;;;0.84;100.00;95979.28;4959881;28;20467;-91
2023/03/27 07:00:40;;;;;;;16.13;4.57;;;;;;;0.92;100.00;95977.00;4946286;28;20467;-91
2023/03/27 07:03:20;;;;;;;19.77;4.73;;;;;;;0.98;100.00;95986.09;4960671;28;20475;-91
2023/03/27 07:06:06;;;;;;;17.47;4.67;;;;;;;1.17;100.00;95993.41;4958582;28;20488;-91
2023/03/27 07:08:53;;;;;;;13.47;3.77;;;;;;;1.07;100.00;95993.22;4960007;28;20478;-90
2023/03/27 07:11:19;;;;;;;19.47;5.33;;;;;;;0.91;100.00;96010.75;4952504;28;20984;-91
2023/03/27 07:13:54;;;;;;;16.10;4.93;;;;;;;1.14;100.00;96011.72;4943559;28;20581;-91
2023/03/27 07:16:28;;;;;;;14.67;4.30;;;;;;;1.17;100.00;96020.16;4957165;28;20576;-91
2023/03/27 07:18:54;;;;;;;15.13;4.93;;;;;;;1.09;100.00;96024.19;4965960;28;20480;-90
2023/03/27 07:21:21;;;;;;;13.17;5.23;;;;;;;1.13;100.00;96034.22;4969197;28;20453;-90
2023/03/27 07:23:47;;;;;;;11.23;4.50;;;;;;;1.27;100.00;96029.84;4965872;28;20442;-90
2023/03/27 07:26:26;;;;;;;21.63;4.37;;;;;;;1.13;100.00;96030.81;4954075;28;20042;-90
2023/03/27 07:28:59;;;;;;;10.88;2.97;;;;;;;1.25;100.00;96040.31;4951306;28;20495;-90
2023/03/27 07:31:26;;;;;;;22.40;5.97;;;;;;;1.12;100.00;96045.53;4949464;28;20054;-91
2023/03/27 07:33:51;;;;;;;17.73;4.60;;;;;;;1.07;100.00;96055.34;4946558;28;20537;-91
2023/03/27 07:36:26;;;;;;;11.53;3.80;;;;;;;1.15;100.00;96057.44;4942348;28;20719;-91
2023/03/27 07:39:00;;;;;;;12.40;4.13;;;;;;;1.17;100.00;96065.91;4961565;28;20415;-91
2023/03/27 07:41:30;;;;;;;12.77;4.20;;;;;;;1.20;100.00;96067.47;4981181;28;20762;-90
2023/03/27 07:43:58;;;;;;;12.30;4.83;;;;;;;0.98;100.00;96081.06;4972119;28;20585;-91
2023/03/27 07:46:27;;;;;;;11.00;4.97;;;;;;;1.15;100.00;96081.56;4950045;28;20450;-91
2023/03/27 07:48:56;;;;;;;14.43;5.00;;;;;;;1.16;100.00;96083.22;4948351;28;20898;-90
2023/03/27 07:51:24;;;;;;;18.20;4.00;;;;;;;1.08;100.00;96090.69;4951116;28;20188;-91
2023/03/27 07:53:54;;;;;;;15.47;5.63;;;;;;;1.36;100.00;96099.16;4948844;28;20568;-91
2023/03/27 07:56:27;;;;;;;13.07;3.60;;;;;;;1.37;100.00;96106.81;4952952;28;20486;-91
2023/03/27 07:59:15;;;;;;;20.83;3.97;;;;;;;1.38;100.00;96113.69;4947095;28;20447;-91
2023/03/27 08:01:41;;;;;;;15.70;3.40;;;;;;;1.31;100.00;96109.03;4964851;28;20797;-91
2023/03/27 08:04:10;;;;;;;16.77;3.70;;;;;;;1.35;100.00;96128.59;4961995;28;20473;-91
2023/03/27 08:06:39;;;;;;;14.80;4.50;;;;;;;1.46;100.00;96126.09;4968220;28;20465;-91
2023/03/27 08:09:11;;;;;;;12.00;3.50;;;;;;;1.48;100.00;96136.38;4946016;28;21042;-91
2023/03/27 08:11:39;;;;;;;8.80;3.10;;;;;;;1.45;100.00;96134.81;4950358;28;20773;-91
2023/03/27 08:14:08;;;;;;;24.03;7.23;;;;;;;1.64;100.00;96132.59;4965799;28;20443;-91
2023/03/27 08:16:35;;;;;;;10.57;4.37;;;;;;;2.02;100.00;96134.25;4965516;28;20473;-91
2023/03/27 08:19:02;;;;;;;13.53;4.00;;;;;;;2.07;100.00;96139.09;4951191;28;20458;-91
2023/03/27 08:21:33;;;;;;;16.17;4.67;;;;;;;2.15;100.00;96143.72;4951406;29;20465;-91
2023/03/27 08:24:00;;;;;;;15.13;6.70;;;;;;;2.23;100.00;96147.44;4948618;28;20482;-91
2023/03/27 08:26:45;;;;;;;14.33;4.87;;;;;;;2.36;100.00;96142.22;4963262;28;20423;-91
2023/03/27 08:29:11;;;;;;;11.87;3.27;;;;;;;2.54;100.00;96146.03;4951975;28;20498;-91
2023/03/27 08:31:38;;;;;;;9.47;3.00;;;;;;;4.22;100.00;96147.94;4949289;28;20485;-92
2023/03/27 08:34:04;;;;;;;8.60;2.60;;;;;;;4.89;100.00;96136.44;4949615;28;20489;-91
2023/03/27 08:36:45;;;;;;;11.50;3.77;;;;;;;4.07;100.00;96143.97;4947361;28;20505;-91
2023/03/27 08:39:12;;;;;;;12.27;2.60;;;;;;;3.85;100.00;96152.63;4959541;28;20031;-90
2023/03/27 08:42:04;;;;;;;7.90;2.53;;;;;;;4.07;100.00;96143.16;4970931;28;20039;-92
2023/03/27 08:44:34;;;;;;;11.50;2.63;;;;;;;4.29;100.00;96156.09;4965540;28;20046;-92
2023/03/27 08:47:10;;;;;;;8.27;2.53;;;;;;;3.97;100.00;96167.28;4965814;28;20031;-92
2023/03/27 08:49:49;;;;;;;6.47;2.13;;;;;;;3.23;100.00;96177.31;4957986;28;20028;-91
2023/03/27 08:52:28;;;;;;;8.77;2.17;;;;;;;4.43;100.00;96171.44;4947597;28;20055;-92
2023/03/27 08:55:04;;;;;;;6.23;2.17;;;;;;;4.49;100.00;96176.19;4967236;28;20096;-92
2023/03/27 08:57:35;;;;;;;6.83;2.17;;;;;;;4.11;100.00;96180.97;4948643;28;20067;-92
2023/03/27 09:00:22;;;;;;;7.80;3.10;;;;;;;6.59;100.00;96175.91;4948310;28;20131;-92
2023/03/27 09:03:00;;;;;;;8.73;3.27;;;;;;;8.13;100.00;96168.72;4967096;28;20035;-92
2023/03/27 09:05:37;;;;;;;8.40;2.50;;;;;;;6.20;100.00;96181.03;4978774;28;20023;-92
2023/03/27 09:08:14;;;;;;;7.40;2.50;;;;;;;5.65;100.00;96180.53;4959477;28;20028;-92
2023/03/27 09:10:48;;;;;;;8.53;1.90;;;;;;;5.78;100.00;96188.97;4951029;28;20035;-92
2023/03/27 09:13:49;;;;;;;8.57;2.33;;;;;;;6.90;100.00;96188.84;4947003;28;20046;-92
2023/03/27 09:16:24;;;;;;;12.37;1.90;;;;;;;8.45;100.00;96184.03;4949006;28;20085;-92
2023/03/27 09:19:16;;;;;;;8.00;1.67;;;;;;;8.85;100.00;96179.31;4959086;28;20801;-92
2023/03/27 09:22:10;;;;;;;5.60;1.50;;;;;;;8.92;100.00;96178.59;4942471;28;20031;-92
2023/03/27 09:25:27;;;;;;;10.67;2.63;;;;;;;10.43;100.00;96172.16;4939123;28;20050;-93
2023/03/27 09:28:21;;;;;;;6.00;1.60;;;;;;;8.75;100.00;96184.63;4964056;28;20260;-92
2023/03/27 09:30:56;;;;;;;5.60;1.57;;;;;;;8.63;100.00;96189.28;4931966;29;20118;-92
2023/03/27 09:33:32;;;;;;;7.43;1.33;;;;;;;6.18;100.00;96216.91;4939200;28;20086;-93
2023/03/27 09:35:59;;;;;;;7.10;1.53;;;;;;;5.92;100.00;96206.06;4961833;28;20035;-92
2023/03/27 09:38:34;;;;;;;5.43;1.30;;;;;;;7.77;100.00;96205.22;4956353;28;20506;-90
2023/03/27 09:41:13;;;;;;;4.50;1.10;;;;;;;7.91;100.00;96205.72;4928741;29;20038;-91
2023/03/27 09:43:45;;;;;;;6.03;1.40;;;;;;;7.79;100.00;96213.78;4959691;28;20134;-92
2023/03/27 09:46:18;;;;;;;6.03;2.00;;;;;;;7.57;100.00;96214.09;4948542;28;20035;-91
2023/03/27 09:49:17;;;;;;;5.47;1.10;;;;;;;6.28;100.00;96219.56;4946734;28;20551;-90
2023/03/27 10:00:14;;;;;;;6.07;1.50;;;;;;;7.29;100.00;96219.25;4963415;29;20082;-95
2023/03/27 10:03:13;;;;;;;7.40;2.40;;;;;;;7.18;100.00;96229.84;4966919;28;20039;-96
2023/03/27 10:09:34;;;;;;;5.30;1.47;;;;;;;8.50;100.00;96233.38;4963738;29;20046;-95
2023/03/27 10:12:15;;;;;;;5.00;1.00;;;;;;;9.37;100.00;96232.75;4962542;29;20071;-95
2023/03/27 10:18:32;;;;;;;2.77;0.63;;;;;;;7.67;100.00;96241.06;4963075;29;20059;-96
2023/03/27 10:21:37;;;;;;;7.10;1.10;;;;;;;8.88;100.00;96234.09;4947383;29;20031;-95
2023/03/27 10:24:16;;;;;;;6.23;1.50;;;;;;;9.01;100.00;96231.09;4947076;29;20042;-95
2023/03/27 10:27:24;;;;;;;5.33;1.20;;;;;;;9.23;100.00;96235.09;4974593;28;20046;-96
2023/03/27 10:30:36;;;;;;;4.50;0.87;;;;;;;10.95;100.00;96223.72;4933805;29;20490;-96
2023/03/27 10:33:40;;;;;;;4.83;0.90;;;;;;;9.61;100.00;96241.78;4984106;28;20035;-95
2023/03/27 10:40:15;;;;;;;4.00;1.00;;;;;;;9.25;100.00;96254.13;4962896;29;20058;-96
2023/03/27 10:46:29;;;;;;;5.07;1.13;;;;;;;7.83;100.00;96258.00;4980940;28;20026;-96
2023/03/27 10:49:10;;;;;;;3.63;0.97;;;;;;;9.18;100.00;96257.34;4957306;28;20055;-96
2023/03/27 10:52:15;;;;;;;8.07;1.37;;;;;;;9.55;100.00;96261.59;4984232;28;20082;-96
2023/03/27 10:55:14;;;;;;;7.37;1.70;;;;;;;10.47;100.00;96254.16;4923554;29;20046;-94
2023/03/27 11:01:44;;;;;;;3.10;0.77;;;;;;;10.09;96.89;96270.19;4959263;29;20044;-96
2023/03/27 11:08:07;;;;;;;6.37;1.33;;;;;;;7.57;100.00;96282.97;4942680;29;20090;-95
2023/03/27 11:14:47;;;;;;;5.63;1.10;;;;;;;10.04;100.00;96277.69;4944868;29;20063;-96
2023/03/27 11:21:12;;;;;;;4.33;1.10;;;;;;;10.80;96.41;96281.41;4943685;29;20520;-96
2023/03/27 11:24:04;;;;;;;5.73;0.97;;;;;;;9.67;100.00;96281.38;4945246;29;20050;-96
2023/03/27 11:26:56;;;;;;;;;;;;;;;8.52;100.00;96283.84;4942732;29;20034;-96
2023/03/27 11:29:29;;;;;;;5.80;1.30;;;;;;;7.88;100.00;96298.50;4959250;29;20013;-95
2023/03/27 11:32:04;;;;;;;5.50;0.73;;;;;;;7.72;100.00;96296.47;4943581;29;20062;-96
2023/03/27 11:35:02;;;;;;;3.30;1.10;;;;;;;8.69;100.00;96293.56;4944014;29;20098;-96
2023/03/27 11:37:44;;;;;;;3.07;0.70;;;;;;;7.48;100.00;96303.94;4958332;28;20087;-95
2023/03/27 11:44:00;;;;;;;3.13;1.20;;;;;;;6.74;100.00;96314.81;4964668;28;20078;-96
2023/03/27 11:47:13;;;;;;;3.90;1.00;;;;;;;7.67;100.00;96319.59;4961482;28;20055;-95
2023/03/27 11:50:16;;;;;;;5.73;1.10;;;;;;;7.61;100.00;96325.38;4963755;29;20509;-96
2023/03/27 11:52:59;;;;;;;4.23;1.00;;;;;;;7.13;100.00;96320.97;4948433;29;20086;-95
2023/03/27 11:56:20;;;;;;;6.00;1.33;;;;;;;6.68;100.00;96337.09;4945928;29;20032;-95
2023/03/27 11:59:10;;;;;;;;;;;;;;;5.70;100.00;96340.16;4964886;29;20401;-95
2023/03/27 12:02:08;;;;;;;5.87;1.50;;;;;;;5.50;100.00;96344.38;4946386;29;19958;-93
2023/03/27 12:04:51;;;;;;;6.97;2.10;;;;;;;4.82;100.00;96348.13;4924168;29;20039;-96
2023/03/27 12:07:45;;;;;;;6.93;1.50;;;;;;;4.83;100.00;96360.19;4960457;29;20498;-96
2023/03/27 12:10:31;;;;;;;2.80;1.07;;;;;;;5.83;100.00;96366.03;4943918;29;20099;-96
2023/03/27 12:13:21;;;;;;;4.20;1.20;;;;;;;6.58;100.00;96359.75;4960310;29;20048;-96
2023/03/27 12:19:52;;;;;;;5.03;0.87;;;;;;;6.00;100.00;96367.28;4952937;29;20034;-96
2023/03/27 12:26:33;;;;;;;4.67;1.00;;;;;;;5.17;100.00;96377.44;4951203;28;20039;-96
2023/03/27 12:33:09;;;;;;;5.30;1.17;;;;;;;7.84;100.00;96359.13;4945469;29;20572;-95
2023/03/27 12:39:24;;;;;;;3.67;1.67;;;;;;;9.13;100.00;96351.41;4943714;29;20108;-96
2023/03/27 12:46:06;;;;;;;11.50;2.63;;;;;;;8.20;100.00;96347.09;4947890;29;20058;-96
2023/03/27 12:52:20;;;;;;;3.87;1.33;;;;;;;8.51;100.00;96342.47;4947959;29;20074;-96
2023/03/27 12:55:17;;;;;;;5.70;1.17;;;;;;;9.00;100.00;96331.75;4966711;29;20136;-96
2023/03/27 13:02:06;;;;;;;3.80;1.20;;;;;;;9.58;100.00;96331.34;4949919;29;20050;-96
2023/03/27 13:13:03;;;;;;;6.43;1.73;;;;;;;8.18;100.00;96328.91;4934018;29;20076;-96
2023/03/27 13:17:11;;;;;;;4.27;1.83;;;;;;;7.60;100.00;96333.38;4895875;29;20069;-96
2023/03/27 13:28:33;;;;;;;7.03;1.60;;;;;;;6.09;100.00;96343.00;4898069;29;20115;-96
2023/03/27 13:35:21;;;;;;;7.27;1.50;;;;;;;6.22;100.00;96346.25;4897772;29;20574;-96
2023/03/27 13:42:04;;;;;;;5.57;0.77;;;;;;;6.25;100.00;96359.06;4908765;29;20063;-96
2023/03/27 13:45:04;;;;;;;7.90;1.03;;;;;;;6.17;100.00;96363.25;4907762;29;20056;-96
2023/03/27 13:58:14;;;;;;;5.40;0.93;;;;;;;7.67;100.00;96382.41;4972830;28;20124;-93
2023/03/27 14:04:56;;;;;;;2.67;0.93;;;;;;;7.07;100.00;96379.84;4981772;28;20094;-94
2023/03/27 14:08:03;;;;;;;12.98;3.20;;;;;;;6.61;100.00;96399.53;4942698;28;20434;-94